sensor_id;sensor_type;location;lat;lon;timestamp;P1;durP1;ratioP1;P2;durP2;ratioP2
31836;SDS011;18401;49.344;6.240;2023-04-19T00:01:23;13.85;;;8.43;;
31836;SDS011;18401;49.344;6.240;2023-04-19T00:03:49;16.38;;;9.38;;
31836;SDS011;18401;49.344;6.240;2023-04-19T00:06:15;18.33;;;9.93;;
31836;SDS011;18401;49.344;6.240;2023-04-19T00:08:41;17.65;;;9.57;;
31836;SDS011;18401;49.344;6.240;2023-04-19T00:11:08;21.02;;;10.15;;
31836;SDS011;18401;49.344;6.240;2023-04-19T00:13:34;20.88;;;10.73;;
31836;SDS011;18401;49.344;6.240;2023-04-19T00:16:00;18.50;;;9.95;;
31836;SDS011;18401;49.344;6.240;2023-04-19T00:18:25;18.75;;;11.32;;
31836;SDS011;18401;49.344;6.240;2023-04-19T00:20:51;20.73;;;11.00;;
31836;SDS011;18401;49.344;6.240;2023-04-19T00:23:17;17.33;;;9.73;;
31836;SDS011;18401;49.344;6.240;2023-04-19T00:25:44;19.95;;;10.68;;
31836;SDS011;18401;49.344;6.240;2023-04-19T00:28:10;21.27;;;10.50;;
31836;SDS011;18401;49.344;6.240;2023-04-19T00:30:35;20.95;;;11.15;;
31836;SDS011;18401;49.344;6.240;2023-04-19T00:33:01;20.85;;;11.25;;
31836;SDS011;18401;49.344;6.240;2023-04-19T00:35:27;18.02;;;10.88;;
31836;SDS011;18401;49.344;6.240;2023-04-19T00:37:52;19.00;;;10.88;;
31836;SDS011;18401;49.344;6.240;2023-04-19T00:40:18;16.00;;;10.30;;
31836;SDS011;18401;49.344;6.240;2023-04-19T00:42:44;19.85;;;12.00;;
31836;SDS011;18401;49.344;6.240;2023-04-19T00:45:10;22.52;;;11.82;;
31836;SDS011;18401;49.344;6.240;2023-04-19T00:47:36;19.20;;;11.40;;
31836;SDS011;18401;49.344;6.240;2023-04-19T00:50:02;20.52;;;11.40;;
31836;SDS011;18401;49.344;6.240;2023-04-19T00:52:28;21.85;;;11.25;;
31836;SDS011;18401;49.344;6.240;2023-04-19T00:54:55;23.23;;;12.00;;
31836;SDS011;18401;49.344;6.240;2023-04-19T00:57:23;21.60;;;11.85;;
31836;SDS011;18401;49.344;6.240;2023-04-19T00:59:49;23.98;;;11.63;;
31836;SDS011;18401;49.344;6.240;2023-04-19T01:02:16;19.35;;;11.35;;
31836;SDS011;18401;49.344;6.240;2023-04-19T01:04:42;25.88;;;12.85;;
31836;SDS011;18401;49.344;6.240;2023-04-19T01:07:08;25.00;;;11.93;;
31836;SDS011;18401;49.344;6.240;2023-04-19T01:09:34;19.90;;;10.95;;
31836;SDS011;18401;49.344;6.240;2023-04-19T01:12:00;22.08;;;11.90;;
31836;SDS011;18401;49.344;6.240;2023-04-19T01:14:27;22.65;;;11.82;;
31836;SDS011;18401;49.344;6.240;2023-04-19T01:16:53;26.17;;;12.15;;
31836;SDS011;18401;49.344;6.240;2023-04-19T01:19:18;23.70;;;11.48;;
31836;SDS011;18401;49.344;6.240;2023-04-19T01:21:45;20.23;;;11.73;;
31836;SDS011;18401;49.344;6.240;2023-04-19T01:24:11;26.75;;;11.90;;
31836;SDS011;18401;49.344;6.240;2023-04-19T01:26:36;22.13;;;11.65;;
31836;SDS011;18401;49.344;6.240;2023-04-19T01:29:02;22.55;;;12.75;;
31836;SDS011;18401;49.344;6.240;2023-04-19T01:31:28;23.15;;;12.07;;
31836;SDS011;18401;49.344;6.240;2023-04-19T01:33:53;23.15;;;11.75;;
31836;SDS011;18401;49.344;6.240;2023-04-19T01:36:19;21.27;;;11.63;;
31836;SDS011;18401;49.344;6.240;2023-04-19T01:38:45;24.95;;;12.32;;
31836;SDS011;18401;49.344;6.240;2023-04-19T01:41:13;21.42;;;11.52;;
31836;SDS011;18401;49.344;6.240;2023-04-19T01:43:39;22.65;;;12.48;;
31836;SDS011;18401;49.344;6.240;2023-04-19T01:46:05;21.02;;;11.73;;
31836;SDS011;18401;49.344;6.240;2023-04-19T01:48:30;21.45;;;11.48;;
31836;SDS011;18401;49.344;6.240;2023-04-19T01:50:56;23.65;;;12.18;;
31836;SDS011;18401;49.344;6.240;2023-04-19T01:53:22;26.20;;;13.05;;
31836;SDS011;18401;49.344;6.240;2023-04-19T01:55:47;21.45;;;11.50;;
31836;SDS011;18401;49.344;6.240;2023-04-19T01:58:13;20.77;;;11.52;;
31836;SDS011;18401;49.344;6.240;2023-04-19T02:00:39;19.73;;;11.68;;
31836;SDS011;18401;49.344;6.240;2023-04-19T02:03:05;24.40;;;12.13;;
31836;SDS011;18401;49.344;6.240;2023-04-19T02:05:30;28.52;;;13.15;;
31836;SDS011;18401;49.344;6.240;2023-04-19T02:07:56;24.30;;;12.57;;
31836;SDS011;18401;49.344;6.240;2023-04-19T02:10:22;22.67;;;11.80;;
31836;SDS011;18401;49.344;6.240;2023-04-19T02:12:48;21.65;;;11.98;;
31836;SDS011;18401;49.344;6.240;2023-04-19T02:15:13;23.42;;;12.57;;
31836;SDS011;18401;49.344;6.240;2023-04-19T02:17:39;20.88;;;11.25;;
31836;SDS011;18401;49.344;6.240;2023-04-19T02:20:05;23.67;;;12.35;;
31836;SDS011;18401;49.344;6.240;2023-04-19T02:22:32;22.95;;;10.93;;
31836;SDS011;18401;49.344;6.240;2023-04-19T02:24:58;25.40;;;11.98;;
31836;SDS011;18401;49.344;6.240;2023-04-19T02:27:23;19.63;;;10.85;;
31836;SDS011;18401;49.344;6.240;2023-04-19T02:29:49;25.95;;;12.93;;
31836;SDS011;18401;49.344;6.240;2023-04-19T02:32:15;21.02;;;11.73;;
31836;SDS011;18401;49.344;6.240;2023-04-19T02:34:41;20.48;;;12.02;;
31836;SDS011;18401;49.344;6.240;2023-04-19T02:37:06;23.73;;;11.27;;
31836;SDS011;18401;49.344;6.240;2023-04-19T02:39:32;21.67;;;10.75;;
31836;SDS011;18401;49.344;6.240;2023-04-19T02:41:58;22.10;;;10.98;;
31836;SDS011;18401;49.344;6.240;2023-04-19T02:44:23;21.98;;;12.35;;
31836;SDS011;18401;49.344;6.240;2023-04-19T02:46:50;21.33;;;10.90;;
31836;SDS011;18401;49.344;6.240;2023-04-19T02:49:16;21.80;;;11.10;;
31836;SDS011;18401;49.344;6.240;2023-04-19T02:51:42;23.13;;;12.05;;
31836;SDS011;18401;49.344;6.240;2023-04-19T02:54:08;19.85;;;11.20;;
31836;SDS011;18401;49.344;6.240;2023-04-19T02:56:34;19.10;;;10.95;;
31836;SDS011;18401;49.344;6.240;2023-04-19T02:59:00;23.23;;;11.20;;
31836;SDS011;18401;49.344;6.240;2023-04-19T03:01:26;25.02;;;11.48;;
31836;SDS011;18401;49.344;6.240;2023-04-19T03:03:52;24.98;;;12.38;;
31836;SDS011;18401;49.344;6.240;2023-04-19T03:06:17;23.83;;;12.75;;
31836;SDS011;18401;49.344;6.240;2023-04-19T03:08:43;23.40;;;12.07;;
31836;SDS011;18401;49.344;6.240;2023-04-19T03:11:14;24.55;;;12.90;;
31836;SDS011;18401;49.344;6.240;2023-04-19T03:13:40;28.85;;;13.75;;
31836;SDS011;18401;49.344;6.240;2023-04-19T03:16:06;24.90;;;13.00;;
31836;SDS011;18401;49.344;6.240;2023-04-19T03:18:32;21.70;;;11.57;;
31836;SDS011;18401;49.344;6.240;2023-04-19T03:20:57;22.17;;;11.52;;
31836;SDS011;18401;49.344;6.240;2023-04-19T03:23:24;25.67;;;14.18;;
31836;SDS011;18401;49.344;6.240;2023-04-19T03:25:50;27.60;;;13.90;;
31836;SDS011;18401;49.344;6.240;2023-04-19T03:28:16;29.13;;;14.85;;
31836;SDS011;18401;49.344;6.240;2023-04-19T03:30:42;29.30;;;14.15;;
31836;SDS011;18401;49.344;6.240;2023-04-19T03:33:07;35.10;;;16.52;;
31836;SDS011;18401;49.344;6.240;2023-04-19T03:35:33;35.17;;;15.52;;
31836;SDS011;18401;49.344;6.240;2023-04-19T03:37:58;32.17;;;14.73;;
31836;SDS011;18401;49.344;6.240;2023-04-19T03:40:24;30.98;;;14.95;;
31836;SDS011;18401;49.344;6.240;2023-04-19T03:42:50;27.30;;;13.98;;
31836;SDS011;18401;49.344;6.240;2023-04-19T03:45:15;40.50;;;16.52;;
31836;SDS011;18401;49.344;6.240;2023-04-19T03:47:41;33.78;;;15.45;;
31836;SDS011;18401;49.344;6.240;2023-04-19T03:50:07;31.23;;;14.55;;
31836;SDS011;18401;49.344;6.240;2023-04-19T03:52:33;32.72;;;15.52;;
31836;SDS011;18401;49.344;6.240;2023-04-19T03:54:59;41.20;;;20.27;;
31836;SDS011;18401;49.344;6.240;2023-04-19T03:57:24;31.92;;;16.13;;
31836;SDS011;18401;49.344;6.240;2023-04-19T03:59:50;29.83;;;14.35;;
31836;SDS011;18401;49.344;6.240;2023-04-19T04:02:16;25.17;;;12.68;;
31836;SDS011;18401;49.344;6.240;2023-04-19T04:04:41;28.75;;;12.35;;
31836;SDS011;18401;49.344;6.240;2023-04-19T04:07:07;28.15;;;13.65;;
31836;SDS011;18401;49.344;6.240;2023-04-19T04:09:33;23.92;;;12.65;;
31836;SDS011;18401;49.344;6.240;2023-04-19T04:11:58;28.15;;;13.60;;
31836;SDS011;18401;49.344;6.240;2023-04-19T04:14:24;24.20;;;12.40;;
31836;SDS011;18401;49.344;6.240;2023-04-19T04:16:50;21.73;;;11.00;;
31836;SDS011;18401;49.344;6.240;2023-04-19T04:19:16;20.33;;;11.57;;
31836;SDS011;18401;49.344;6.240;2023-04-19T04:21:42;19.98;;;10.90;;
31836;SDS011;18401;49.344;6.240;2023-04-19T04:24:07;16.65;;;9.98;;
31836;SDS011;18401;49.344;6.240;2023-04-19T04:26:33;16.50;;;9.18;;
31836;SDS011;18401;49.344;6.240;2023-04-19T04:29:03;20.80;;;10.43;;
31836;SDS011;18401;49.344;6.240;2023-04-19T04:31:29;13.93;;;8.48;;
31836;SDS011;18401;49.344;6.240;2023-04-19T04:33:55;13.73;;;8.55;;
31836;SDS011;18401;49.344;6.240;2023-04-19T04:36:21;14.52;;;8.18;;
31836;SDS011;18401;49.344;6.240;2023-04-19T04:38:47;14.73;;;8.77;;
31836;SDS011;18401;49.344;6.240;2023-04-19T04:41:13;14.90;;;8.50;;
31836;SDS011;18401;49.344;6.240;2023-04-19T04:43:40;12.65;;;7.80;;
31836;SDS011;18401;49.344;6.240;2023-04-19T04:46:06;12.80;;;8.25;;
31836;SDS011;18401;49.344;6.240;2023-04-19T04:48:32;14.73;;;7.55;;
31836;SDS011;18401;49.344;6.240;2023-04-19T04:50:58;13.32;;;7.75;;
31836;SDS011;18401;49.344;6.240;2023-04-19T04:53:27;13.60;;;7.30;;
31836;SDS011;18401;49.344;6.240;2023-04-19T04:55:52;14.73;;;7.78;;
31836;SDS011;18401;49.344;6.240;2023-04-19T04:58:18;11.13;;;6.78;;
31836;SDS011;18401;49.344;6.240;2023-04-19T05:00:44;13.35;;;7.63;;
31836;SDS011;18401;49.344;6.240;2023-04-19T05:03:11;13.85;;;7.90;;
31836;SDS011;18401;49.344;6.240;2023-04-19T05:05:36;13.50;;;7.75;;
31836;SDS011;18401;49.344;6.240;2023-04-19T05:08:02;12.77;;;8.50;;
31836;SDS011;18401;49.344;6.240;2023-04-19T05:10:28;11.77;;;7.15;;
31836;SDS011;18401;49.344;6.240;2023-04-19T05:12:53;13.05;;;7.45;;
31836;SDS011;18401;49.344;6.240;2023-04-19T05:15:19;13.60;;;7.88;;
31836;SDS011;18401;49.344;6.240;2023-04-19T05:17:45;14.80;;;8.02;;
31836;SDS011;18401;49.344;6.240;2023-04-19T05:20:10;11.98;;;6.88;;
31836;SDS011;18401;49.344;6.240;2023-04-19T05:22:36;15.05;;;7.78;;
31836;SDS011;18401;49.344;6.240;2023-04-19T05:25:02;15.32;;;7.25;;
31836;SDS011;18401;49.344;6.240;2023-04-19T05:27:28;13.90;;;7.45;;
31836;SDS011;18401;49.344;6.240;2023-04-19T05:29:54;13.13;;;6.72;;
31836;SDS011;18401;49.344;6.240;2023-04-19T05:32:20;14.77;;;7.72;;
31836;SDS011;18401;49.344;6.240;2023-04-19T05:34:45;13.85;;;7.30;;
31836;SDS011;18401;49.344;6.240;2023-04-19T05:37:11;11.63;;;7.45;;
31836;SDS011;18401;49.344;6.240;2023-04-19T05:39:36;12.95;;;6.82;;
31836;SDS011;18401;49.344;6.240;2023-04-19T05:42:02;11.73;;;6.68;;
31836;SDS011;18401;49.344;6.240;2023-04-19T05:44:28;12.32;;;7.63;;
31836;SDS011;18401;49.344;6.240;2023-04-19T05:46:54;12.88;;;7.90;;
31836;SDS011;18401;49.344;6.240;2023-04-19T05:49:19;13.02;;;7.65;;
31836;SDS011;18401;49.344;6.240;2023-04-19T05:51:45;13.75;;;7.25;;
31836;SDS011;18401;49.344;6.240;2023-04-19T05:54:10;12.93;;;7.28;;
31836;SDS011;18401;49.344;6.240;2023-04-19T05:56:38;16.83;;;6.80;;
31836;SDS011;18401;49.344;6.240;2023-04-19T05:59:04;12.48;;;6.95;;
31836;SDS011;18401;49.344;6.240;2023-04-19T06:01:30;14.07;;;6.82;;
31836;SDS011;18401;49.344;6.240;2023-04-19T06:03:56;10.25;;;6.70;;
31836;SDS011;18401;49.344;6.240;2023-04-19T06:06:22;12.95;;;6.60;;
31836;SDS011;18401;49.344;6.240;2023-04-19T06:08:47;13.43;;;6.80;;
31836;SDS011;18401;49.344;6.240;2023-04-19T06:11:13;11.60;;;7.35;;
31836;SDS011;18401;49.344;6.240;2023-04-19T06:13:39;16.00;;;7.00;;
31836;SDS011;18401;49.344;6.240;2023-04-19T06:16:05;14.88;;;7.35;;
31836;SDS011;18401;49.344;6.240;2023-04-19T06:18:32;19.80;;;7.57;;
31836;SDS011;18401;49.344;6.240;2023-04-19T06:20:57;14.35;;;7.95;;
31836;SDS011;18401;49.344;6.240;2023-04-19T06:23:23;14.50;;;7.63;;
31836;SDS011;18401;49.344;6.240;2023-04-19T06:25:49;11.32;;;7.28;;
31836;SDS011;18401;49.344;6.240;2023-04-19T06:28:15;11.38;;;6.93;;
31836;SDS011;18401;49.344;6.240;2023-04-19T06:30:41;11.45;;;7.28;;
31836;SDS011;18401;49.344;6.240;2023-04-19T06:33:07;14.60;;;7.78;;
31836;SDS011;18401;49.344;6.240;2023-04-19T06:35:32;15.05;;;8.27;;
31836;SDS011;18401;49.344;6.240;2023-04-19T06:37:58;15.50;;;8.20;;
31836;SDS011;18401;49.344;6.240;2023-04-19T06:40:24;10.38;;;6.85;;
31836;SDS011;18401;49.344;6.240;2023-04-19T06:42:55;13.57;;;7.38;;
31836;SDS011;18401;49.344;6.240;2023-04-19T06:45:21;11.90;;;7.35;;
31836;SDS011;18401;49.344;6.240;2023-04-19T06:47:47;14.00;;;7.63;;
31836;SDS011;18401;49.344;6.240;2023-04-19T06:50:12;10.60;;;7.00;;
31836;SDS011;18401;49.344;6.240;2023-04-19T06:52:38;11.52;;;7.10;;
31836;SDS011;18401;49.344;6.240;2023-04-19T06:55:05;10.77;;;6.70;;
31836;SDS011;18401;49.344;6.240;2023-04-19T06:57:31;9.27;;;6.35;;
31836;SDS011;18401;49.344;6.240;2023-04-19T06:59:57;11.30;;;6.72;;
31836;SDS011;18401;49.344;6.240;2023-04-19T07:02:23;11.50;;;6.80;;
31836;SDS011;18401;49.344;6.240;2023-04-19T07:04:48;10.25;;;6.47;;
31836;SDS011;18401;49.344;6.240;2023-04-19T07:07:14;11.30;;;6.57;;
31836;SDS011;18401;49.344;6.240;2023-04-19T07:09:40;9.85;;;6.38;;
31836;SDS011;18401;49.344;6.240;2023-04-19T07:12:06;10.05;;;6.00;;
31836;SDS011;18401;49.344;6.240;2023-04-19T07:14:32;10.98;;;6.25;;
31836;SDS011;18401;49.344;6.240;2023-04-19T07:16:57;10.35;;;6.43;;
31836;SDS011;18401;49.344;6.240;2023-04-19T07:19:23;10.10;;;6.30;;
31836;SDS011;18401;49.344;6.240;2023-04-19T07:21:49;12.43;;;6.50;;
31836;SDS011;18401;49.344;6.240;2023-04-19T07:24:15;11.43;;;6.50;;
31836;SDS011;18401;49.344;6.240;2023-04-19T07:26:41;8.55;;;5.95;;
31836;SDS011;18401;49.344;6.240;2023-04-19T07:29:07;10.93;;;5.95;;
31836;SDS011;18401;49.344;6.240;2023-04-19T07:31:32;9.25;;;5.82;;
31836;SDS011;18401;49.344;6.240;2023-04-19T07:33:58;11.30;;;6.20;;
31836;SDS011;18401;49.344;6.240;2023-04-19T07:36:24;10.05;;;6.43;;
31836;SDS011;18401;49.344;6.240;2023-04-19T07:38:49;10.95;;;6.32;;
31836;SDS011;18401;49.344;6.240;2023-04-19T07:41:15;12.40;;;6.78;;
31836;SDS011;18401;49.344;6.240;2023-04-19T07:43:42;13.48;;;7.13;;
31836;SDS011;18401;49.344;6.240;2023-04-19T07:46:08;9.65;;;6.07;;
31836;SDS011;18401;49.344;6.240;2023-04-19T07:48:37;10.10;;;6.38;;
31836;SDS011;18401;49.344;6.240;2023-04-19T07:51:09;9.85;;;6.60;;
31836;SDS011;18401;49.344;6.240;2023-04-19T07:53:36;10.52;;;6.80;;
31836;SDS011;18401;49.344;6.240;2023-04-19T07:56:04;10.23;;;6.25;;
31836;SDS011;18401;49.344;6.240;2023-04-19T07:58:34;9.18;;;5.85;;
31836;SDS011;18401;49.344;6.240;2023-04-19T08:01:00;11.50;;;6.40;;
31836;SDS011;18401;49.344;6.240;2023-04-19T08:03:25;9.02;;;6.22;;
31836;SDS011;18401;49.344;6.240;2023-04-19T08:05:51;10.55;;;7.10;;
31836;SDS011;18401;49.344;6.240;2023-04-19T08:08:17;9.05;;;5.80;;
31836;SDS011;18401;49.344;6.240;2023-04-19T08:10:43;9.73;;;6.65;;
31836;SDS011;18401;49.344;6.240;2023-04-19T08:13:09;10.48;;;7.22;;
31836;SDS011;18401;49.344;6.240;2023-04-19T08:15:35;10.13;;;6.13;;
31836;SDS011;18401;49.344;6.240;2023-04-19T08:18:01;13.68;;;6.80;;
31836;SDS011;18401;49.344;6.240;2023-04-19T08:20:29;9.73;;;6.13;;
31836;SDS011;18401;49.344;6.240;2023-04-19T08:22:55;10.82;;;6.78;;
31836;SDS011;18401;49.344;6.240;2023-04-19T08:25:21;12.93;;;6.55;;
31836;SDS011;18401;49.344;6.240;2023-04-19T08:27:50;10.80;;;6.07;;
31836;SDS011;18401;49.344;6.240;2023-04-19T08:30:16;13.50;;;6.63;;
31836;SDS011;18401;49.344;6.240;2023-04-19T08:32:42;12.98;;;6.68;;
31836;SDS011;18401;49.344;6.240;2023-04-19T08:35:08;9.57;;;5.53;;
31836;SDS011;18401;49.344;6.240;2023-04-19T08:37:34;12.07;;;6.07;;
31836;SDS011;18401;49.344;6.240;2023-04-19T08:40:00;9.73;;;6.07;;
31836;SDS011;18401;49.344;6.240;2023-04-19T08:42:25;9.95;;;5.63;;
31836;SDS011;18401;49.344;6.240;2023-04-19T08:44:51;10.45;;;6.18;;
31836;SDS011;18401;49.344;6.240;2023-04-19T08:47:18;11.00;;;6.30;;
31836;SDS011;18401;49.344;6.240;2023-04-19T08:49:46;10.40;;;6.20;;
31836;SDS011;18401;49.344;6.240;2023-04-19T08:52:13;11.23;;;6.32;;
31836;SDS011;18401;49.344;6.240;2023-04-19T08:54:39;9.88;;;5.82;;
31836;SDS011;18401;49.344;6.240;2023-04-19T08:57:05;10.80;;;6.38;;
31836;SDS011;18401;49.344;6.240;2023-04-19T08:59:33;10.80;;;6.45;;
31836;SDS011;18401;49.344;6.240;2023-04-19T09:01:59;10.13;;;6.20;;
31836;SDS011;18401;49.344;6.240;2023-04-19T09:04:26;10.23;;;6.50;;
31836;SDS011;18401;49.344;6.240;2023-04-19T09:06:51;12.02;;;6.95;;
31836;SDS011;18401;49.344;6.240;2023-04-19T09:09:21;8.90;;;5.93;;
31836;SDS011;18401;49.344;6.240;2023-04-19T09:11:49;9.70;;;6.20;;
31836;SDS011;18401;49.344;6.240;2023-04-19T09:14:15;12.35;;;6.05;;
31836;SDS011;18401;49.344;6.240;2023-04-19T09:16:42;6.82;;;5.20;;
31836;SDS011;18401;49.344;6.240;2023-04-19T09:19:08;7.90;;;5.22;;
31836;SDS011;18401;49.344;6.240;2023-04-19T09:21:35;10.18;;;5.07;;
31836;SDS011;18401;49.344;6.240;2023-04-19T09:24:01;9.50;;;5.57;;
31836;SDS011;18401;49.344;6.240;2023-04-19T09:26:27;9.63;;;5.63;;
31836;SDS011;18401;49.344;6.240;2023-04-19T09:28:59;10.68;;;6.38;;
31836;SDS011;18401;49.344;6.240;2023-04-19T09:31:33;9.52;;;6.13;;
31836;SDS011;18401;49.344;6.240;2023-04-19T09:34:13;9.15;;;5.57;;
31836;SDS011;18401;49.344;6.240;2023-04-19T09:36:40;7.50;;;4.63;;
31836;SDS011;18401;49.344;6.240;2023-04-19T09:39:05;8.60;;;5.20;;
31836;SDS011;18401;49.344;6.240;2023-04-19T09:41:31;13.45;;;5.03;;
31836;SDS011;18401;49.344;6.240;2023-04-19T09:44:10;9.85;;;5.25;;
31836;SDS011;18401;49.344;6.240;2023-04-19T09:46:37;8.35;;;4.90;;
31836;SDS011;18401;49.344;6.240;2023-04-19T09:51:43;7.20;;;4.70;;
31836;SDS011;18401;49.344;6.240;2023-04-19T09:54:11;9.43;;;4.97;;
31836;SDS011;18401;49.344;6.240;2023-04-19T09:56:38;7.28;;;4.60;;
31836;SDS011;18401;49.344;6.240;2023-04-19T09:59:04;7.28;;;4.72;;
31836;SDS011;18401;49.344;6.240;2023-04-19T10:01:33;7.35;;;4.00;;
31836;SDS011;18401;49.344;6.240;2023-04-19T10:04:10;7.30;;;4.47;;
31836;SDS011;18401;49.344;6.240;2023-04-19T10:06:38;6.50;;;4.15;;
31836;SDS011;18401;49.344;6.240;2023-04-19T10:09:05;5.78;;;4.10;;
31836;SDS011;18401;49.344;6.240;2023-04-19T10:11:36;7.85;;;4.05;;
31836;SDS011;18401;49.344;6.240;2023-04-19T10:14:08;5.70;;;3.75;;
31836;SDS011;18401;49.344;6.240;2023-04-19T10:16:35;7.18;;;4.50;;
31836;SDS011;18401;49.344;6.240;2023-04-19T10:19:03;5.18;;;3.33;;
31836;SDS011;18401;49.344;6.240;2023-04-19T10:21:35;5.18;;;3.72;;
31836;SDS011;18401;49.344;6.240;2023-04-19T10:24:01;5.63;;;3.42;;
31836;SDS011;18401;49.344;6.240;2023-04-19T10:26:27;9.10;;;3.47;;
31836;SDS011;18401;49.344;6.240;2023-04-19T10:28:56;6.78;;;3.60;;
31836;SDS011;18401;49.344;6.240;2023-04-19T10:31:23;4.70;;;3.03;;
31836;SDS011;18401;49.344;6.240;2023-04-19T10:33:50;5.88;;;2.72;;
31836;SDS011;18401;49.344;6.240;2023-04-19T10:36:17;5.00;;;3.35;;
31836;SDS011;18401;49.344;6.240;2023-04-19T10:38:43;5.43;;;3.13;;
31836;SDS011;18401;49.344;6.240;2023-04-19T10:41:15;5.38;;;3.03;;
31836;SDS011;18401;49.344;6.240;2023-04-19T10:43:43;3.38;;;2.53;;
31836;SDS011;18401;49.344;6.240;2023-04-19T10:51:22;3.58;;;2.78;;
31836;SDS011;18401;49.344;6.240;2023-04-19T11:01:38;4.35;;;2.40;;
31836;SDS011;18401;49.344;6.240;2023-04-19T11:06:36;2.60;;;2.20;;
31836;SDS011;18401;49.344;6.240;2023-04-19T11:09:30;4.38;;;2.67;;
31836;SDS011;18401;49.344;6.240;2023-04-19T11:14:39;3.58;;;2.97;;
31836;SDS011;18401;49.344;6.240;2023-04-19T11:17:13;4.63;;;2.28;;
31836;SDS011;18401;49.344;6.240;2023-04-19T11:22:17;4.70;;;2.83;;
31836;SDS011;18401;49.344;6.240;2023-04-19T11:24:48;3.90;;;2.33;;
31836;SDS011;18401;49.344;6.240;2023-04-19T11:27:13;4.30;;;2.60;;
31836;SDS011;18401;49.344;6.240;2023-04-19T11:29:39;3.15;;;2.50;;
31836;SDS011;18401;49.344;6.240;2023-04-19T11:32:05;7.03;;;2.45;;
31836;SDS011;18401;49.344;6.240;2023-04-19T11:34:37;3.85;;;2.30;;
31836;SDS011;18401;49.344;6.240;2023-04-19T11:37:04;3.80;;;2.28;;
31836;SDS011;18401;49.344;6.240;2023-04-19T11:39:30;7.22;;;2.95;;
31836;SDS011;18401;49.344;6.240;2023-04-19T11:41:55;3.17;;;2.25;;
31836;SDS011;18401;49.344;6.240;2023-04-19T11:44:22;3.30;;;2.13;;
31836;SDS011;18401;49.344;6.240;2023-04-19T11:46:57;3.42;;;2.22;;
31836;SDS011;18401;49.344;6.240;2023-04-19T11:49:30;3.25;;;2.17;;
31836;SDS011;18401;49.344;6.240;2023-04-19T11:52:01;4.53;;;2.22;;
31836;SDS011;18401;49.344;6.240;2023-04-19T11:54:30;6.35;;;4.10;;
31836;SDS011;18401;49.344;6.240;2023-04-19T11:57:02;7.15;;;4.25;;
31836;SDS011;18401;49.344;6.240;2023-04-19T11:59:30;9.90;;;3.78;;
31836;SDS011;18401;49.344;6.240;2023-04-19T12:02:03;6.25;;;3.45;;
31836;SDS011;18401;49.344;6.240;2023-04-19T12:04:35;5.38;;;3.80;;
31836;SDS011;18401;49.344;6.240;2023-04-19T12:07:02;9.30;;;5.38;;
31836;SDS011;18401;49.344;6.240;2023-04-19T12:09:31;6.40;;;3.75;;
31836;SDS011;18401;49.344;6.240;2023-04-19T12:11:57;9.30;;;3.97;;
31836;SDS011;18401;49.344;6.240;2023-04-19T12:14:23;10.27;;;3.65;;
31836;SDS011;18401;49.344;6.240;2023-04-19T12:17:03;5.40;;;3.85;;
31836;SDS011;18401;49.344;6.240;2023-04-19T12:19:33;4.55;;;3.25;;
31836;SDS011;18401;49.344;6.240;2023-04-19T12:22:08;4.03;;;2.80;;
31836;SDS011;18401;49.344;6.240;2023-04-19T12:24:36;7.40;;;4.00;;
31836;SDS011;18401;49.344;6.240;2023-04-19T12:27:02;5.03;;;3.28;;
31836;SDS011;18401;49.344;6.240;2023-04-19T12:29:28;8.38;;;3.60;;
31836;SDS011;18401;49.344;6.240;2023-04-19T12:31:54;9.32;;;3.88;;
31836;SDS011;18401;49.344;6.240;2023-04-19T12:34:19;8.65;;;3.45;;
31836;SDS011;18401;49.344;6.240;2023-04-19T12:36:45;8.02;;;3.80;;
31836;SDS011;18401;49.344;6.240;2023-04-19T12:39:11;6.88;;;4.38;;
31836;SDS011;18401;49.344;6.240;2023-04-19T12:41:37;9.15;;;3.75;;
31836;SDS011;18401;49.344;6.240;2023-04-19T12:44:02;7.25;;;3.80;;
31836;SDS011;18401;49.344;6.240;2023-04-19T12:46:28;5.95;;;3.55;;
31836;SDS011;18401;49.344;6.240;2023-04-19T12:48:54;7.55;;;3.83;;
31836;SDS011;18401;49.344;6.240;2023-04-19T12:51:19;8.18;;;3.65;;
31836;SDS011;18401;49.344;6.240;2023-04-19T12:53:48;6.80;;;4.30;;
31836;SDS011;18401;49.344;6.240;2023-04-19T12:56:14;8.70;;;4.45;;
31836;SDS011;18401;49.344;6.240;2023-04-19T12:58:41;7.85;;;4.50;;
31836;SDS011;18401;49.344;6.240;2023-04-19T13:01:07;5.15;;;4.28;;
31836;SDS011;18401;49.344;6.240;2023-04-19T13:03:32;7.20;;;4.15;;
31836;SDS011;18401;49.344;6.240;2023-04-19T13:06:03;5.93;;;3.83;;
31836;SDS011;18401;49.344;6.240;2023-04-19T13:08:29;10.00;;;5.32;;
31836;SDS011;18401;49.344;6.240;2023-04-19T13:10:55;6.40;;;4.05;;
31836;SDS011;18401;49.344;6.240;2023-04-19T13:13:23;4.93;;;3.75;;
31836;SDS011;18401;49.344;6.240;2023-04-19T13:15:50;5.28;;;4.07;;
31836;SDS011;18401;49.344;6.240;2023-04-19T13:18:16;6.65;;;4.07;;
31836;SDS011;18401;49.344;6.240;2023-04-19T13:20:43;6.72;;;3.33;;
31836;SDS011;18401;49.344;6.240;2023-04-19T13:23:08;7.80;;;3.78;;
31836;SDS011;18401;49.344;6.240;2023-04-19T13:25:34;5.40;;;3.95;;
31836;SDS011;18401;49.344;6.240;2023-04-19T13:27:59;6.32;;;3.92;;
31836;SDS011;18401;49.344;6.240;2023-04-19T13:30:25;5.70;;;3.55;;
31836;SDS011;18401;49.344;6.240;2023-04-19T13:32:51;6.43;;;4.10;;
31836;SDS011;18401;49.344;6.240;2023-04-19T13:35:17;6.97;;;4.15;;
31836;SDS011;18401;49.344;6.240;2023-04-19T13:37:42;6.00;;;3.58;;
31836;SDS011;18401;49.344;6.240;2023-04-19T13:40:10;7.10;;;4.28;;
31836;SDS011;18401;49.344;6.240;2023-04-19T13:42:36;8.63;;;4.35;;
31836;SDS011;18401;49.344;6.240;2023-04-19T13:45:02;7.03;;;4.32;;
31836;SDS011;18401;49.344;6.240;2023-04-19T13:47:28;6.43;;;3.85;;
31836;SDS011;18401;49.344;6.240;2023-04-19T13:49:54;7.55;;;4.18;;
31836;SDS011;18401;49.344;6.240;2023-04-19T13:52:20;5.32;;;3.88;;
31836;SDS011;18401;49.344;6.240;2023-04-19T13:54:47;5.68;;;3.75;;
31836;SDS011;18401;49.344;6.240;2023-04-19T13:57:13;10.95;;;5.47;;
31836;SDS011;18401;49.344;6.240;2023-04-19T13:59:39;13.50;;;6.55;;
31836;SDS011;18401;49.344;6.240;2023-04-19T14:02:04;6.82;;;4.07;;
31836;SDS011;18401;49.344;6.240;2023-04-19T14:04:30;8.10;;;3.40;;
31836;SDS011;18401;49.344;6.240;2023-04-19T14:06:56;6.93;;;3.25;;
31836;SDS011;18401;49.344;6.240;2023-04-19T14:09:22;3.92;;;3.15;;
31836;SDS011;18401;49.344;6.240;2023-04-19T14:11:48;6.05;;;3.10;;
31836;SDS011;18401;49.344;6.240;2023-04-19T14:14:13;7.78;;;3.63;;
31836;SDS011;18401;49.344;6.240;2023-04-19T14:16:39;4.60;;;3.42;;
31836;SDS011;18401;49.344;6.240;2023-04-19T14:19:05;5.88;;;3.60;;
31836;SDS011;18401;49.344;6.240;2023-04-19T14:21:31;7.07;;;3.53;;
31836;SDS011;18401;49.344;6.240;2023-04-19T14:23:57;6.50;;;3.67;;
31836;SDS011;18401;49.344;6.240;2023-04-19T14:26:23;4.53;;;3.10;;
31836;SDS011;18401;49.344;6.240;2023-04-19T14:28:48;5.35;;;3.63;;
31836;SDS011;18401;49.344;6.240;2023-04-19T14:31:14;5.78;;;3.10;;
31836;SDS011;18401;49.344;6.240;2023-04-19T14:33:40;7.50;;;3.30;;
31836;SDS011;18401;49.344;6.240;2023-04-19T14:36:06;3.45;;;2.90;;
31836;SDS011;18401;49.344;6.240;2023-04-19T14:38:31;4.68;;;3.20;;
31836;SDS011;18401;49.344;6.240;2023-04-19T14:40:58;4.65;;;2.90;;
31836;SDS011;18401;49.344;6.240;2023-04-19T14:43:24;5.95;;;3.25;;
31836;SDS011;18401;49.344;6.240;2023-04-19T14:45:50;4.28;;;3.30;;
31836;SDS011;18401;49.344;6.240;2023-04-19T14:48:16;5.25;;;3.10;;
31836;SDS011;18401;49.344;6.240;2023-04-19T14:50:44;4.45;;;3.20;;
31836;SDS011;18401;49.344;6.240;2023-04-19T14:53:10;4.25;;;2.42;;
31836;SDS011;18401;49.344;6.240;2023-04-19T14:55:36;3.85;;;2.72;;